createdAt,value
2024-04-15T00:01:28.209Z,99.7
2024-04-15T00:03:09.028Z,99.5
2024-04-15T00:04:49.804Z,99.9
2024-04-15T00:06:30.387Z,99.5
2024-04-15T00:08:10.842Z,99.8
2024-04-15T00:09:51.385Z,99.8
2024-04-15T00:11:31.859Z,100
2024-04-15T00:13:12.427Z,100
2024-04-15T00:14:52.982Z,99.2
2024-04-15T00:16:33.787Z,100
2024-04-15T00:18:14.496Z,99.6
2024-04-15T00:19:54.964Z,99.6
2024-04-15T00:21:35.403Z,100
2024-04-15T00:23:15.878Z,99.9
2024-04-15T00:24:56.408Z,99.6
2024-04-15T00:26:36.873Z,100
2024-04-15T00:28:17.440Z,99.4
2024-04-15T00:29:58.027Z,99.9
2024-04-15T00:31:38.562Z,99
2024-04-15T00:33:19.147Z,99.7
2024-04-15T00:34:59.770Z,99.9
2024-04-15T00:36:40.279Z,99.7
2024-04-15T00:38:20.809Z,99.9
2024-04-15T00:40:01.643Z,99.8
2024-04-15T00:41:42.102Z,99.8
2024-04-15T00:43:39.512Z,99.8
2024-04-15T00:45:19.962Z,99.5
2024-04-15T00:47:00.558Z,99.9
2024-04-15T00:48:41.252Z,99.7
2024-04-15T00:50:21.744Z,100
2024-04-15T00:52:02.264Z,99.6
2024-04-15T00:53:42.848Z,99.4
2024-04-15T00:55:23.308Z,99.9
2024-04-15T00:57:03.769Z,99.1
2024-04-15T00:58:44.218Z,99.6
2024-04-15T01:00:24.683Z,99.6
2024-04-15T01:02:05.368Z,99.5
2024-04-15T01:03:49.380Z,99.4
2024-04-15T01:05:30.096Z,99.6
2024-04-15T01:07:10.738Z,99.7
2024-04-15T01:08:51.362Z,99.6
2024-04-15T01:10:38.706Z,99.3
2024-04-15T01:12:38.213Z,99.1
2024-04-15T01:14:18.729Z,99.3
2024-04-15T01:15:59.379Z,98.4
2024-04-15T01:17:40.507Z,98.5
2024-04-15T01:19:21.232Z,98.8
2024-04-15T01:21:01.842Z,99.3
2024-04-15T01:22:42.340Z,99.3
2024-04-15T01:24:22.810Z,98.9
2024-04-15T01:26:03.259Z,98.9
2024-04-15T01:27:43.777Z,98.8
2024-04-15T01:29:24.183Z,99.4
2024-04-15T01:31:04.703Z,98.9
2024-04-15T01:32:45.301Z,97.9
2024-04-15T01:34:25.834Z,98.6
2024-04-15T01:36:06.309Z,98.9
2024-04-15T01:37:46.752Z,98.2
2024-04-15T01:39:27.230Z,98.3
2024-04-15T01:41:07.663Z,99.2
2024-04-15T01:42:48.131Z,97.9
2024-04-15T01:44:28.730Z,97.7
2024-04-15T01:46:09.304Z,98.5
2024-04-15T01:47:50.036Z,97.7
2024-04-15T01:49:30.555Z,97.1
2024-04-15T02:03:27.256Z,97.6
2024-04-15T02:05:07.733Z,97.6
2024-04-15T02:06:48.316Z,96.8
2024-04-15T02:08:28.871Z,97.4
2024-04-15T02:10:09.497Z,97
2024-04-15T02:11:50.073Z,97.4
2024-04-15T02:13:30.546Z,97
2024-04-15T02:15:10.989Z,96.4
2024-04-15T02:16:51.596Z,96.9
2024-04-15T02:18:32.352Z,97.8
2024-04-15T02:20:13.172Z,96.5
2024-04-15T02:21:53.726Z,96.5
2024-04-15T02:23:34.290Z,97.4
2024-04-15T02:25:14.808Z,96.6
2024-04-15T02:26:55.626Z,96.6
2024-04-15T02:28:36.168Z,96.4
2024-04-15T02:30:16.660Z,96.7
2024-04-15T02:31:57.158Z,96.4
2024-04-15T02:33:37.708Z,96.8
2024-04-15T02:35:18.191Z,96.5
2024-04-15T02:36:58.757Z,96.7
2024-04-15T02:38:39.304Z,96.5
2024-04-15T02:40:19.977Z,97
2024-04-15T02:42:00.553Z,96.8
2024-04-15T02:43:40.979Z,96.7
2024-04-15T02:45:21.463Z,96.6
2024-04-15T02:47:02.068Z,96.2
2024-04-15T02:48:42.690Z,96.5
2024-04-15T02:50:23.212Z,96.7
2024-04-15T02:52:03.778Z,97.1
2024-04-15T02:53:44.423Z,96.4
2024-04-15T02:55:25.991Z,96.4
2024-04-15T02:57:06.571Z,96.4
2024-04-15T02:58:47.028Z,96.3
2024-04-15T03:00:27.556Z,96.2
2024-04-15T03:02:08.040Z,96.3
2024-04-15T03:03:48.984Z,96.1
2024-04-15T03:05:29.573Z,96
2024-04-15T03:07:10.032Z,96.5
2024-04-15T03:08:50.684Z,96.7
2024-04-15T03:10:31.154Z,96.3
2024-04-15T03:12:11.598Z,96.4
2024-04-15T03:13:52.066Z,96.7
2024-04-15T03:15:32.522Z,97
2024-04-15T03:17:13.025Z,96.7
2024-04-15T03:18:53.645Z,96.3
2024-04-15T03:20:34.286Z,95.9
2024-04-15T03:22:14.851Z,96.3
2024-04-15T03:23:55.514Z,97.5
2024-04-15T03:25:35.956Z,96.7
2024-04-15T03:27:16.409Z,96.1
2024-04-15T03:28:56.911Z,96
2024-04-15T03:30:37.315Z,96.2
2024-04-15T03:32:17.988Z,96.3
2024-04-15T03:33:58.758Z,97.3
2024-04-15T03:35:39.299Z,96.6
2024-04-15T03:37:19.859Z,96.5
2024-04-15T03:39:00.337Z,96
2024-04-15T03:40:40.775Z,96.3
2024-04-15T03:42:21.271Z,96.3
2024-04-15T03:44:01.791Z,96.6
2024-04-15T03:45:42.244Z,96.4
2024-04-15T03:47:23.009Z,96.6
2024-04-15T03:49:03.648Z,96.2
2024-04-15T03:50:44.227Z,96.1
2024-04-15T03:54:22.039Z,96.2
2024-04-15T03:56:02.488Z,96.3
2024-04-15T03:57:42.965Z,96.1
2024-04-15T03:59:23.501Z,96.5
2024-04-15T04:01:04.426Z,96.1
2024-04-15T04:02:45.174Z,97.2
2024-04-15T04:04:26.742Z,96.5
2024-04-15T04:06:13.275Z,96.8
2024-04-15T04:07:53.771Z,96.2
2024-04-15T04:09:34.225Z,95.9
2024-04-15T04:11:14.766Z,95.9
2024-04-15T04:12:55.417Z,96.4
2024-04-15T04:14:35.996Z,96.2
2024-04-15T04:16:16.753Z,96.5
2024-04-15T04:17:57.490Z,96.4
2024-04-15T04:19:38.113Z,96.5
2024-04-15T04:21:18.550Z,96.3
2024-04-15T04:22:58.990Z,95.8
2024-04-15T04:24:39.495Z,96
2024-04-15T04:26:20.011Z,96.7
2024-04-15T04:28:00.489Z,96
2024-04-15T04:29:41.044Z,96.3
2024-04-15T04:31:21.579Z,96.2
2024-04-15T04:33:02.201Z,96.3
2024-04-15T04:34:42.871Z,96.3
2024-04-15T04:36:23.404Z,96.7
2024-04-15T04:38:03.919Z,96.4
2024-04-15T04:39:44.459Z,96.2
2024-04-15T04:41:24.922Z,96.4
2024-04-15T04:43:05.494Z,96.2
2024-04-15T04:44:46.155Z,96.1
2024-04-15T04:46:26.794Z,96.5
2024-04-15T04:48:07.316Z,96.2
2024-04-15T04:49:47.943Z,96.4
2024-04-15T04:51:28.580Z,96.6
2024-04-15T04:53:11.865Z,97
2024-04-15T04:54:52.561Z,96.2
2024-04-15T04:56:33.131Z,96.7
2024-04-15T04:58:13.623Z,96.2
2024-04-15T04:59:54.360Z,96.4
2024-04-15T05:01:34.961Z,96.4
2024-04-15T05:03:15.772Z,96.5
2024-04-15T05:04:56.545Z,96.1
2024-04-15T05:06:37.009Z,97
2024-04-15T05:08:17.552Z,96.1
2024-04-15T05:09:58.010Z,96.4
2024-04-15T05:11:38.696Z,96.8
2024-04-15T05:13:19.396Z,96.3
2024-04-15T05:14:59.893Z,96.3
2024-04-15T05:16:40.356Z,96.4
2024-04-15T05:18:20.945Z,96.6
2024-04-15T05:20:01.677Z,96.8
2024-04-15T05:21:42.142Z,96.8
2024-04-15T05:23:22.567Z,97.4
2024-04-15T05:25:03.136Z,96.6
2024-04-15T05:26:43.693Z,96.7
2024-04-15T05:28:24.218Z,96.5
2024-04-15T05:30:04.797Z,96.7
2024-04-15T05:31:45.432Z,96.6
2024-04-15T05:33:26.020Z,96.5
2024-04-15T05:35:06.514Z,96.7
2024-04-15T05:36:47.278Z,96.6
2024-04-15T05:38:27.803Z,96.7
2024-04-15T05:40:08.451Z,96.4
2024-04-15T05:43:46.371Z,96.7
2024-04-15T05:45:26.834Z,96.5
2024-04-15T05:47:07.282Z,96.3
2024-04-15T05:48:47.994Z,96.9
2024-04-15T05:50:28.957Z,96.9
2024-04-15T05:52:09.556Z,96.6
2024-04-15T05:53:50.152Z,97.4
2024-04-15T05:55:30.592Z,96.5
2024-04-15T05:57:11.039Z,97
2024-04-15T05:58:51.534Z,97
2024-04-15T06:00:32.057Z,96.6
2024-04-15T06:02:12.666Z,96.5
2024-04-15T06:03:53.375Z,96.9
2024-04-15T06:05:34.064Z,96.8
2024-04-15T06:07:14.663Z,96.7
2024-04-15T06:08:55.255Z,97.5
2024-04-15T06:10:35.717Z,97.5
2024-04-15T06:12:16.184Z,97.4
2024-04-15T06:13:56.637Z,97.9
2024-04-15T06:15:37.170Z,97.4
2024-04-15T06:17:18.729Z,97.5
2024-04-15T06:18:59.604Z,98
2024-04-15T06:20:40.104Z,98.8
2024-04-15T06:22:20.757Z,98.7
2024-04-15T06:24:01.305Z,98.1
2024-04-15T06:25:41.812Z,97.1
2024-04-15T06:27:22.329Z,98
2024-04-15T06:29:02.793Z,98.4
2024-04-15T06:30:43.225Z,97
2024-04-15T06:32:23.764Z,98.1
2024-04-15T06:34:04.404Z,98
2024-04-15T06:35:44.922Z,98
2024-04-15T06:37:25.537Z,97.9
2024-04-15T06:39:06.124Z,97.7
2024-04-15T06:40:46.586Z,98.1
2024-04-15T06:42:27.037Z,98.5
2024-04-15T06:44:07.492Z,98.4
2024-04-15T06:45:48.104Z,98
2024-04-15T06:47:28.743Z,98
2024-04-15T06:49:09.297Z,98
2024-04-15T06:50:50.017Z,98.4
2024-04-15T06:52:30.592Z,98.3
2024-04-15T06:54:11.136Z,98
2024-04-15T06:55:51.604Z,97.9
2024-04-15T06:57:32.154Z,98.4
2024-04-15T06:59:12.602Z,98.3
2024-04-15T07:00:53.183Z,98.3
2024-04-15T07:02:33.979Z,97.7
2024-04-15T07:04:15.016Z,97.9
2024-04-15T07:05:56.007Z,98.3
2024-04-15T07:07:36.630Z,97.9
2024-04-15T07:09:17.100Z,97.8
2024-04-15T07:10:57.610Z,98.1
2024-04-15T07:12:38.522Z,98.4
2024-04-15T07:14:19.134Z,98.1
2024-04-15T07:15:59.840Z,98.4
2024-04-15T07:17:40.574Z,98
2024-04-15T07:19:21.288Z,97.9
2024-04-15T07:21:01.827Z,98
2024-04-15T07:22:42.372Z,97.9
2024-04-15T07:24:22.836Z,97.9
2024-04-15T07:26:03.281Z,98.4
2024-04-15T07:27:43.868Z,98
2024-04-15T07:29:24.401Z,98.2
2024-04-15T07:31:21.966Z,98.1
2024-04-15T07:33:02.748Z,98.3
2024-04-15T07:34:43.285Z,98.1
2024-04-15T07:36:23.813Z,98
2024-04-15T07:38:04.331Z,97.8
2024-04-15T07:39:44.866Z,98.3
2024-04-15T07:41:25.427Z,97.8
2024-04-15T07:43:05.954Z,98.2
2024-04-15T07:44:46.524Z,97.8
2024-04-15T07:46:27.094Z,98.2
2024-04-15T07:48:07.810Z,98.1
2024-04-15T07:49:48.412Z,98
2024-04-15T07:51:32.329Z,98.1
2024-04-15T07:53:12.819Z,97.7
2024-04-15T07:54:53.335Z,98.1
2024-04-15T07:56:33.922Z,98.2
2024-04-15T07:58:17.447Z,98.1
2024-04-15T07:59:57.994Z,97.9
2024-04-15T08:03:15.995Z,98.7
2024-04-15T08:04:56.678Z,97.7
2024-04-15T08:06:37.290Z,98.2
2024-04-15T08:08:17.780Z,98.5
2024-04-15T08:09:58.291Z,98.3
2024-04-15T08:11:38.858Z,98.1
2024-04-15T08:13:19.403Z,98.2
2024-04-15T08:15:00.069Z,98.1
2024-04-15T08:16:40.703Z,97.8
2024-04-15T08:18:21.381Z,98.3
2024-04-15T08:20:01.903Z,98
2024-04-15T08:21:42.613Z,98.1
2024-04-15T08:23:23.045Z,98.1
2024-04-15T08:25:03.581Z,98.2
2024-04-15T08:26:44.064Z,97.6
2024-04-15T08:28:24.651Z,97.7
2024-04-15T08:30:05.320Z,98
2024-04-15T08:31:45.866Z,97.9
2024-04-15T08:33:26.558Z,98.3
2024-04-15T08:35:07.282Z,98.2
2024-04-15T08:36:47.803Z,97.8
2024-04-15T08:38:31.823Z,97.8
2024-04-15T08:40:12.406Z,97.7
2024-04-15T08:42:06.560Z,97.8
2024-04-15T08:43:47.451Z,97.5
2024-04-15T08:45:27.974Z,97.7
2024-04-15T08:47:08.766Z,98
2024-04-15T08:48:49.518Z,97.9
2024-04-15T08:50:30.156Z,97.9
2024-04-15T08:52:10.871Z,98.1
2024-04-15T08:53:51.333Z,98
2024-04-15T08:55:31.873Z,97.8
2024-04-15T08:57:12.431Z,97.7
2024-04-15T08:58:53.022Z,98.1
2024-04-15T09:00:37.000Z,97.8
2024-04-15T09:02:17.809Z,97.7
2024-04-15T09:03:58.512Z,98
2024-04-15T09:05:39.114Z,98.1
2024-04-15T09:07:19.790Z,97.8
2024-04-15T09:09:00.437Z,98.2
2024-04-15T09:10:40.887Z,98.2
2024-04-15T09:12:21.443Z,97.9
2024-04-15T09:14:01.967Z,97.6
2024-04-15T09:15:42.362Z,98
2024-04-15T09:17:22.933Z,98
2024-04-15T09:19:03.405Z,97.7
2024-04-15T09:21:00.643Z,97.5
2024-04-15T09:22:45.251Z,98.3
2024-04-15T09:24:25.734Z,98.2
2024-04-15T09:26:06.250Z,97.5
2024-04-15T09:27:46.787Z,98.5
2024-04-15T09:29:27.314Z,97.7
2024-04-15T09:31:07.863Z,98.1
2024-04-15T09:32:48.392Z,98.1
2024-04-15T09:34:28.975Z,97.4
2024-04-15T09:36:09.487Z,98
2024-04-15T09:37:50.128Z,98.2
2024-04-15T09:39:30.615Z,97.7
2024-04-15T09:41:11.138Z,97.8
2024-04-15T09:42:51.603Z,97.9
2024-04-15T09:44:32.292Z,97.4
2024-04-15T09:46:12.875Z,97.1
2024-04-15T09:47:53.578Z,97.8
2024-04-15T09:49:35.501Z,97.6
2024-04-15T09:51:15.999Z,98.2
2024-04-15T09:54:53.989Z,97.6
2024-04-15T09:56:34.571Z,98
2024-04-15T09:58:15.106Z,98.1
2024-04-15T09:59:55.714Z,97.9
2024-04-15T10:01:36.444Z,98.2
2024-04-15T10:03:17.317Z,98.1
2024-04-15T10:04:58.211Z,98.5
2024-04-15T10:06:39.056Z,97.8
2024-04-15T10:08:19.669Z,97.3
2024-04-15T10:10:00.339Z,97.7
2024-04-15T10:11:41.131Z,98
2024-04-15T10:13:21.913Z,97.5
2024-04-15T10:15:02.469Z,97.7
2024-04-15T10:16:45.731Z,98.4
2024-04-15T10:18:26.350Z,97.7
2024-04-15T10:20:06.900Z,97.8
2024-04-15T10:21:47.360Z,97.9
2024-04-15T10:23:28.047Z,97.6
2024-04-15T10:25:08.606Z,98.1
2024-04-15T10:26:49.120Z,98.2
2024-04-15T10:28:29.653Z,97.5
2024-04-15T10:30:10.394Z,98.1
2024-04-15T10:31:50.993Z,97.9
2024-04-15T10:33:31.788Z,97.3
2024-04-15T10:35:12.391Z,98.1
2024-04-15T10:36:52.968Z,98
2024-04-15T10:38:33.570Z,97.8
2024-04-15T10:40:14.125Z,97.7
2024-04-15T10:41:55.028Z,98.3
2024-04-15T10:43:35.648Z,97.9
2024-04-15T10:45:16.187Z,98.1
2024-04-15T10:47:01.270Z,97.7
2024-04-15T10:48:43.131Z,98
2024-04-15T10:50:23.586Z,98.2
2024-04-15T10:52:04.121Z,97.8
2024-04-15T10:53:44.990Z,97.8
2024-04-15T10:55:25.569Z,97.5
2024-04-15T10:57:06.237Z,98.2
2024-04-15T10:58:46.682Z,98.3
2024-04-15T11:00:27.198Z,98.2
2024-04-15T11:02:07.807Z,98
2024-04-15T11:03:48.379Z,98.5
2024-04-15T11:05:28.853Z,98.7
2024-04-15T11:07:09.324Z,97.8
2024-04-15T11:08:49.996Z,97.8
2024-04-15T11:10:30.665Z,97.6
2024-04-15T11:12:11.157Z,98.1
2024-04-15T11:13:51.605Z,97.8
2024-04-15T11:15:32.098Z,98
2024-04-15T11:17:13.437Z,98
2024-04-15T11:18:54.076Z,98.2
2024-04-15T11:20:34.578Z,98.2
2024-04-15T11:22:21.430Z,98.4
2024-04-15T11:24:03.239Z,98.4
2024-04-15T11:25:44.002Z,98.3
2024-04-15T11:27:24.462Z,98.2
2024-04-15T11:29:04.943Z,97.9
2024-04-15T11:30:45.385Z,98.4
2024-04-15T11:32:25.869Z,98
2024-04-15T11:34:06.747Z,98.2
2024-04-15T11:35:47.262Z,98.3
2024-04-15T11:37:27.824Z,98
2024-04-15T11:39:08.543Z,98.4
2024-04-15T11:40:49.051Z,98
2024-04-15T11:44:26.960Z,98.3
2024-04-15T11:46:08.273Z,98.2
2024-04-15T11:47:49.037Z,98.3
2024-04-15T11:49:29.874Z,98.4
2024-04-15T11:51:10.717Z,98.7
2024-04-15T11:52:51.234Z,98.1
2024-04-15T11:54:31.762Z,98.6
2024-04-15T11:56:12.251Z,98.4
2024-04-15T11:57:52.831Z,98.3
2024-04-15T11:59:33.412Z,98.2
2024-04-15T12:01:14.080Z,98.1
2024-04-15T12:02:54.750Z,97.8
2024-04-15T12:04:35.499Z,98.3
2024-04-15T12:06:16.151Z,98.2
2024-04-15T12:07:56.627Z,98.3
2024-04-15T12:09:37.076Z,97.9
2024-04-15T12:11:17.618Z,98.2
2024-04-15T12:12:58.160Z,98.1
2024-04-15T12:14:38.641Z,98.4
2024-04-15T12:16:19.328Z,98.1
2024-04-15T12:18:00.064Z,98.4
2024-04-15T12:19:40.669Z,98.2
2024-04-15T12:21:21.210Z,98.4
2024-04-15T12:23:01.741Z,98.6
2024-04-15T12:25:05.320Z,98.8
2024-04-15T12:26:49.472Z,98.7
2024-04-15T12:28:29.955Z,98.7
2024-04-15T12:30:11.362Z,98.9
2024-04-15T12:31:52.301Z,98.7
2024-04-15T12:33:36.162Z,98.5
2024-04-15T12:35:16.667Z,98.8
2024-04-15T12:36:57.304Z,99.2
2024-04-15T12:38:37.877Z,98.8
2024-04-15T12:40:18.433Z,98.9
2024-04-15T12:41:59.011Z,99
2024-04-15T12:43:39.560Z,98.9
2024-04-15T12:45:20.253Z,98.9
2024-04-15T12:47:00.772Z,98.9
2024-04-15T12:48:41.437Z,99.1
2024-04-15T12:50:22.118Z,99.2
2024-04-15T12:52:02.768Z,99.1
2024-04-15T12:53:43.324Z,98.6
2024-04-15T12:55:23.868Z,98.9
2024-04-15T12:57:04.639Z,99.2
2024-04-15T12:58:45.086Z,98.9
2024-04-15T13:00:25.567Z,99.1
2024-04-15T13:02:11.087Z,98.8
2024-04-15T13:03:52.006Z,99
2024-04-15T13:05:36.704Z,99.1
2024-04-15T13:07:18.333Z,98.8
2024-04-15T13:08:58.894Z,99.1
2024-04-15T13:10:39.628Z,99.2
2024-04-15T13:12:20.410Z,98.9
2024-04-15T13:14:00.941Z,98.7
2024-04-15T13:15:41.423Z,98.9
2024-04-15T13:17:21.954Z,99.1
2024-04-15T13:19:02.518Z,98.8
2024-04-15T13:20:42.993Z,99.1
2024-04-15T13:22:23.596Z,99.2
2024-04-15T13:24:04.221Z,99.2
2024-04-15T13:25:44.685Z,99.3
2024-04-15T13:27:25.122Z,98.7
2024-04-15T13:29:05.587Z,99.1
2024-04-15T13:30:46.291Z,99
2024-04-15T13:32:44.692Z,98.9
2024-04-15T13:34:26.238Z,99.1
2024-04-15T13:36:07.528Z,99
2024-04-15T13:37:48.844Z,99.2
2024-04-15T13:39:29.370Z,99.2
2024-04-15T13:41:09.884Z,98.9
2024-04-15T13:42:50.399Z,98.9
2024-04-15T13:44:30.960Z,98.8
2024-04-15T13:46:12.753Z,99.2
2024-04-15T13:47:53.799Z,99.1
2024-04-15T13:49:34.360Z,99.2
2024-04-15T13:51:14.853Z,99.2
2024-04-15T13:52:55.327Z,99
2024-04-15T13:54:35.764Z,99.3
2024-04-15T13:56:16.292Z,99.3
2024-04-15T13:57:56.851Z,99.2
2024-04-15T13:59:37.339Z,99.1
2024-04-15T14:03:19.370Z,99.1
2024-04-15T14:05:00.853Z,99.3
2024-04-15T14:06:41.716Z,98.9
2024-04-15T14:08:23.860Z,99.1
2024-04-15T14:10:05.654Z,99
2024-04-15T14:11:46.217Z,99
2024-04-15T14:13:26.785Z,99.3
2024-04-15T14:15:07.385Z,98.9
2024-04-15T14:16:48.128Z,99.2
2024-04-15T14:18:28.860Z,99
2024-04-15T14:20:09.440Z,99.2
2024-04-15T14:21:50.071Z,98.8
2024-04-15T14:23:30.559Z,99.1
2024-04-15T14:25:11.106Z,99.1
2024-04-15T14:26:51.670Z,99.3
2024-04-15T14:28:32.202Z,99.1
2024-04-15T14:30:12.734Z,98.8
2024-04-15T14:31:53.234Z,99.1
2024-04-15T14:33:33.938Z,99
2024-04-15T14:35:14.615Z,98.8
2024-04-15T14:36:55.193Z,99.2
2024-04-15T14:38:35.739Z,99.3
2024-04-15T14:40:24.768Z,99.2
2024-04-15T14:42:10.225Z,99.1
2024-04-15T14:43:50.757Z,99.1
2024-04-15T14:45:31.239Z,99.1
2024-04-15T14:47:11.688Z,99
2024-04-15T14:48:52.300Z,98.9
2024-04-15T14:50:32.789Z,99.2
2024-04-15T14:52:13.329Z,99.1
2024-04-15T14:53:53.930Z,99
2024-04-15T14:55:34.582Z,98.9
2024-04-15T14:57:15.258Z,99
2024-04-15T14:58:55.806Z,98.7
2024-04-15T15:00:36.314Z,98.9
2024-04-15T15:02:16.972Z,98.8
2024-04-15T15:03:57.531Z,98.5
2024-04-15T15:05:38.013Z,98.6
2024-04-15T15:07:18.615Z,98.7
2024-04-15T15:08:59.254Z,98.9
2024-04-15T15:10:39.750Z,98.6
2024-04-15T15:12:20.265Z,98.7
2024-04-15T15:14:00.831Z,98.7
2024-04-15T15:15:41.320Z,98.7
2024-04-15T15:17:21.813Z,98.5
2024-04-15T15:19:02.514Z,98.7
2024-04-15T15:20:43.243Z,98.6
2024-04-15T15:22:23.826Z,98.3
2024-04-15T15:24:04.576Z,98.8
2024-04-15T15:25:45.602Z,98.9
2024-04-15T15:27:26.148Z,98.6
2024-04-15T15:29:06.554Z,98.9
2024-04-15T15:30:47.061Z,98.8
2024-04-15T15:32:27.741Z,98.7
2024-04-15T15:34:08.421Z,98.6
2024-04-15T15:35:48.886Z,98.7
2024-04-15T15:37:29.402Z,98.8
2024-04-15T15:39:09.951Z,98.7
2024-04-15T15:40:50.454Z,98.8
2024-04-15T15:42:30.954Z,98.8
2024-04-15T15:44:11.382Z,98.7
2024-04-15T15:45:55.968Z,98.8
2024-04-15T15:47:37.528Z,99
2024-04-15T15:49:18.232Z,98.9
2024-04-15T15:51:02.752Z,98.6
2024-04-15T15:54:40.621Z,98.5
2024-04-15T15:56:21.192Z,98.4
2024-04-15T15:58:01.914Z,98.1
2024-04-15T15:59:43.274Z,98.3
2024-04-15T16:01:24.777Z,98.6
2024-04-15T16:03:09.979Z,98.5
2024-04-15T16:04:50.951Z,98.6
2024-04-15T16:06:31.614Z,98.8
2024-04-15T16:08:12.049Z,98.4
2024-04-15T16:09:52.574Z,98.5
2024-04-15T16:11:46.524Z,98.7
2024-04-15T16:13:27.804Z,98.5
2024-04-15T16:15:08.564Z,98.5
2024-04-15T16:16:49.141Z,98.7
2024-04-15T16:18:31.473Z,98.7
2024-04-15T16:20:12.067Z,98.7
2024-04-15T16:21:52.606Z,98.5
2024-04-15T16:23:33.154Z,98.3
2024-04-15T16:25:13.747Z,98.4
2024-04-15T16:26:54.262Z,98.8
2024-04-15T16:28:34.750Z,98.6
2024-04-15T16:30:15.295Z,98.6
2024-04-15T16:31:55.733Z,98.8
2024-04-15T16:33:36.308Z,98.7
2024-04-15T16:35:16.904Z,98.7
2024-04-15T16:36:57.413Z,98.6
2024-04-15T16:38:37.969Z,98.7
2024-04-15T16:40:18.609Z,98.8
2024-04-15T16:41:59.298Z,98.7
2024-04-15T16:43:39.885Z,98.6
2024-04-15T16:45:20.416Z,98.9
2024-04-15T16:47:01.058Z,98.8
2024-04-15T16:48:41.553Z,98.8
2024-04-15T16:50:22.047Z,98.5
2024-04-15T16:52:02.609Z,98.5
2024-04-15T16:53:43.253Z,98.7
2024-04-15T16:55:23.863Z,99
2024-04-15T16:57:05.208Z,98.8
2024-04-15T16:58:50.375Z,98.7
2024-04-15T17:00:30.979Z,99
2024-04-15T17:02:11.511Z,98.7
2024-04-15T17:03:52.100Z,98.5
2024-04-15T17:05:32.728Z,98.6
2024-04-15T17:07:13.191Z,98.6
2024-04-15T17:08:53.773Z,98.4
2024-04-15T17:10:34.388Z,98.5
2024-04-15T17:12:14.963Z,98.8
2024-04-15T17:13:55.451Z,98.5
2024-04-15T17:15:35.974Z,98.6
2024-04-15T17:17:16.483Z,98.3
2024-04-15T17:18:57.064Z,98.4
2024-04-15T17:20:37.651Z,98.5
2024-04-15T17:22:18.273Z,98.4
2024-04-15T17:23:58.839Z,98.3
2024-04-15T17:25:39.480Z,98.7
2024-04-15T17:27:20.305Z,98.4
2024-04-15T17:29:00.770Z,97.8
2024-04-15T17:30:41.219Z,97.4
2024-04-15T17:32:21.801Z,97.3
2024-04-15T17:34:02.540Z,97.3
2024-04-15T17:35:43.086Z,97.9
2024-04-15T17:37:23.651Z,98.1
2024-04-15T17:39:04.348Z,97.7
2024-04-15T17:40:44.882Z,98
2024-04-15T17:42:25.320Z,97.8
2024-04-15T17:42:42.242Z,98
2024-04-15T17:44:22.750Z,97.9
2024-04-15T17:46:03.306Z,97.6
2024-04-15T17:47:43.857Z,97.3
2024-04-15T17:49:24.500Z,97.8
2024-04-15T17:51:05.324Z,98.2
2024-04-15T17:52:45.985Z,98.3
2024-04-15T17:54:26.431Z,98.1
2024-04-15T17:56:07.118Z,97.8
2024-04-15T17:57:47.553Z,98.3
2024-04-15T17:59:28.032Z,97.9
2024-04-15T18:01:08.543Z,97.7
2024-04-15T18:02:49.285Z,97.7
2024-04-15T18:04:30.041Z,97.6
2024-04-15T18:06:10.647Z,98.1
2024-04-15T18:07:51.091Z,98.3
2024-04-15T18:09:32.036Z,97.8
2024-04-15T18:11:12.715Z,98.2
2024-04-15T18:12:53.305Z,98.3
2024-04-15T18:14:33.895Z,98.4
2024-04-15T18:16:14.538Z,98
2024-04-15T18:17:55.626Z,98.1
2024-04-15T18:19:38.876Z,98.1
2024-04-15T18:21:19.452Z,97.9
2024-04-15T18:22:59.968Z,98.2
2024-04-15T18:24:40.484Z,97.7
2024-04-15T18:26:20.921Z,98.2
2024-04-15T18:28:01.452Z,98.4
2024-04-15T18:29:42.114Z,98.4
2024-04-15T18:31:22.662Z,98.4
2024-04-15T18:33:03.444Z,97.6
2024-04-15T18:34:44.019Z,97.9
2024-04-15T18:36:24.482Z,97.4
2024-04-15T18:38:04.958Z,98.2
2024-04-15T18:39:45.387Z,97.6
2024-04-15T18:41:25.843Z,97.9
2024-04-15T18:43:06.388Z,97.8
2024-04-15T18:44:46.997Z,97.8
2024-04-15T18:46:27.609Z,97.6
2024-04-15T18:48:08.333Z,97.8
2024-04-15T18:49:49.039Z,97.8
2024-04-15T18:51:29.562Z,97.3
2024-04-15T18:53:10.051Z,97.9
2024-04-15T18:54:50.511Z,97.9
2024-04-15T18:56:30.984Z,97.8
2024-04-15T18:58:13.539Z,97.8
2024-04-15T18:59:54.055Z,97.6
2024-04-15T19:01:34.506Z,97.7
2024-04-15T19:03:15.163Z,97.9
2024-04-15T19:04:55.928Z,97.9
2024-04-15T19:06:36.374Z,97.8
2024-04-15T19:08:17.701Z,97.9
2024-04-15T19:09:58.228Z,97.8
2024-04-15T19:11:38.873Z,97.8
2024-04-15T19:13:19.592Z,97.3
2024-04-15T19:15:15.845Z,97.3
2024-04-15T19:16:59.166Z,97
2024-04-15T19:18:39.727Z,97.3
2024-04-15T19:20:20.344Z,96.8
2024-04-15T19:22:01.009Z,96.6
2024-04-15T19:23:41.516Z,97.4
2024-04-15T19:25:22.028Z,96.9
2024-04-15T19:27:05.548Z,96.7
2024-04-15T19:28:46.050Z,97.7
2024-04-15T19:30:26.606Z,97.3
2024-04-15T19:32:07.361Z,97.5
2024-04-15T19:34:05.083Z,98
2024-04-15T19:35:45.641Z,97.9
2024-04-15T19:37:26.214Z,97.6
2024-04-15T19:39:06.831Z,98.3
2024-04-15T19:40:47.326Z,98.1
2024-04-15T19:42:27.819Z,97.1
2024-04-15T19:44:08.407Z,97.2
2024-04-15T19:45:48.919Z,98
2024-04-15T19:47:29.426Z,97.2
2024-04-15T19:49:10.045Z,97.7
2024-04-15T19:50:50.615Z,97.6
2024-04-15T19:52:31.283Z,96.7
2024-04-15T19:54:12.154Z,97.3
2024-04-15T19:55:52.694Z,97.3
2024-04-15T19:57:33.178Z,97.9
2024-04-15T19:59:13.773Z,98.2
2024-04-15T20:00:54.286Z,97.9
2024-04-15T20:02:35.057Z,98.1
2024-04-15T20:04:15.776Z,97.8
2024-04-15T20:05:56.451Z,97.9
2024-04-15T20:07:36.995Z,97.8
2024-04-15T20:09:17.462Z,98.1
2024-04-15T20:10:58.037Z,97.9
2024-04-15T20:12:38.516Z,97.3
2024-04-15T20:14:18.936Z,97.1
2024-04-15T20:15:59.516Z,96.7
2024-04-15T20:17:40.292Z,96.7
2024-04-15T20:19:24.768Z,96.5
2024-04-15T20:21:06.409Z,96.4
2024-04-15T20:22:46.844Z,96.5
2024-04-15T20:24:27.305Z,96.7
2024-04-15T20:26:07.797Z,97
2024-04-15T20:27:48.337Z,97.2
2024-04-15T20:29:28.826Z,96.5
2024-04-15T20:31:09.465Z,96.7
2024-04-15T20:32:50.318Z,96.6
2024-04-15T20:34:31.338Z,96.5
2024-04-15T20:36:11.920Z,96.7
2024-04-15T20:37:52.376Z,96.7
2024-04-15T20:39:32.832Z,96.3
2024-04-15T20:41:13.474Z,96.1
2024-04-15T20:42:54.053Z,96.3
2024-04-15T20:44:34.625Z,96.4
2024-04-15T20:46:15.192Z,96.1
2024-04-15T20:47:55.822Z,96.9
2024-04-15T20:49:36.690Z,96.5
2024-04-15T20:51:17.154Z,96.6
2024-04-15T20:52:57.604Z,96.7
2024-04-15T20:54:38.091Z,97.3
2024-04-15T20:56:18.627Z,96.7
2024-04-15T20:57:59.292Z,96.3
2024-04-15T20:59:39.759Z,96.3
2024-04-15T21:03:25.755Z,96.4
2024-04-15T21:05:06.411Z,96.3
2024-04-15T21:06:46.973Z,96.1
2024-04-15T21:08:27.413Z,96.7
2024-04-15T21:10:07.956Z,96.1
2024-04-15T21:11:48.691Z,96
2024-04-15T21:13:29.499Z,96.9
2024-04-15T21:15:10.073Z,96.2
2024-04-15T21:16:50.571Z,96.4
2024-04-15T21:18:31.107Z,96.4
2024-04-15T21:20:11.737Z,96.8
2024-04-15T21:21:52.189Z,96.6
2024-04-15T21:23:32.658Z,96.4
2024-04-15T21:25:13.129Z,96.6
2024-04-15T21:26:53.651Z,96.6
2024-04-15T21:28:34.323Z,96.6
2024-04-15T21:30:14.869Z,95.7
2024-04-15T21:31:55.346Z,96.4
2024-04-15T21:33:35.813Z,96.3
2024-04-15T21:35:16.439Z,96.6
2024-04-15T21:36:56.996Z,96.4
2024-04-15T21:38:37.568Z,96.7
2024-04-15T21:40:18.114Z,96.7
2024-04-15T21:41:58.692Z,96.5
2024-04-15T21:43:42.574Z,96.4
2024-04-15T21:45:23.889Z,96.4
2024-04-15T21:47:04.404Z,96.3
2024-04-15T21:48:44.925Z,96.2
2024-04-15T21:50:25.356Z,95.9
2024-04-15T21:52:05.907Z,96.2
2024-04-15T21:53:46.495Z,96
2024-04-15T21:55:27.054Z,96.4
2024-04-15T21:57:07.835Z,96.7
2024-04-15T21:58:48.365Z,96.6
2024-04-15T22:00:28.809Z,96.7
2024-04-15T22:02:09.322Z,96.2
2024-04-15T22:03:50.040Z,96.8
2024-04-15T22:05:30.685Z,96.1
2024-04-15T22:07:11.162Z,96.8
2024-04-15T22:08:51.809Z,96.6
2024-04-15T22:10:32.481Z,96.7
2024-04-15T22:12:13.337Z,96.9
2024-04-15T22:13:53.782Z,96.8
2024-04-15T22:15:34.282Z,97
2024-04-15T22:17:14.799Z,97.2
2024-04-15T22:18:55.609Z,97.5
2024-04-15T22:20:36.125Z,96.8
2024-04-15T22:22:16.644Z,96.5
2024-04-15T22:23:57.137Z,96.6
2024-04-15T22:25:37.681Z,96.3
2024-04-15T22:27:18.252Z,96.4
2024-04-15T22:28:58.787Z,96.4
2024-04-15T22:30:39.284Z,96.6
2024-04-15T22:32:19.824Z,96.2
2024-04-15T22:34:00.526Z,96.7
2024-04-15T22:35:41.141Z,96.2
2024-04-15T22:37:21.692Z,96.9
2024-04-15T22:39:02.221Z,96.8
2024-04-15T22:40:42.795Z,96.6
2024-04-15T22:42:23.270Z,96.6
2024-04-15T22:44:03.767Z,96.5
2024-04-15T22:45:44.282Z,96.7
2024-04-15T22:47:24.907Z,96
2024-04-15T22:49:05.720Z,96.5
2024-04-15T22:50:46.167Z,96.4
2024-04-15T22:54:25.057Z,96.7
2024-04-15T22:56:05.559Z,96.1
2024-04-15T22:57:46.029Z,96.7
2024-04-15T22:59:26.476Z,96.3
2024-04-15T23:01:07.051Z,96.3